Terminal Aerodrome Forecast
Issued by NWS

Home | Current Version | Previous Version | Text Only | Print | Product List | Glossary On
Versions: 1 2 3 4 5 6 7 8 9 10 11 12
000
FTUS45 KVEF 181100
TAFBIH
TAF
KBIH 181127Z 1812/1912 34008KT P6SM BKN100 OVC200
     FM181800 17009G15KT P6SM BKN100 BKN200
     FM182200 17012G20KT P6SM VCTS BKN100CB BKN150
     FM190200 15008KT P6SM SCT150 BKN200
     FM190800 35009KT P6SM BKN200=

USA.gov is the U.S. government's official web portal to all federal, state and local government web resources and services.